createdAt,value
2019-01-08T00:00:19.513Z,5.03
2019-01-08T00:00:56.476Z,4.80
2019-01-08T00:01:33.175Z,4.93
2019-01-08T00:02:09.935Z,4.47
2019-01-08T00:02:46.940Z,3.87
2019-01-08T00:03:19.960Z,6.00
2019-01-08T00:03:56.574Z,6.00
2019-01-08T00:04:32.884Z,5.77
2019-01-08T00:05:09.520Z,4.57
2019-01-08T00:05:46.541Z,4.43
2019-01-08T00:06:22.928Z,4.30
2019-01-08T00:06:59.112Z,4.73
2019-01-08T00:07:35.319Z,4.00
2019-01-08T00:08:11.710Z,4.70
2019-01-08T00:08:48.422Z,4.60
2019-01-08T00:09:24.749Z,4.60
2019-01-08T00:10:00.929Z,4.37
2019-01-08T00:10:37.659Z,4.40
2019-01-08T00:11:13.817Z,4.73
2019-01-08T00:11:50.206Z,4.33
2019-01-08T00:12:28.048Z,4.50
2019-01-08T00:13:05.065Z,4.80
2019-01-08T00:13:41.219Z,4.33
2019-01-08T00:14:18.441Z,5.33
2019-01-08T00:14:55.213Z,4.87
2019-01-08T00:15:31.568Z,5.23
2019-01-08T00:16:08.437Z,4.70
2019-01-08T00:16:44.633Z,4.80
2019-01-08T00:17:21.414Z,5.30
2019-01-08T00:17:57.751Z,5.00
2019-01-08T00:18:34.024Z,4.47
2019-01-08T00:19:10.669Z,4.70
2019-01-08T00:19:47.368Z,4.70
2019-01-08T00:20:23.585Z,4.80
2019-01-08T00:21:00.032Z,5.97
2019-01-08T00:21:36.911Z,4.33
2019-01-08T00:22:13.205Z,5.50
2019-01-08T00:22:49.591Z,5.10
2019-01-08T00:23:26.839Z,4.93
2019-01-08T00:24:03.168Z,4.67
2019-01-08T00:24:39.931Z,5.23
2019-01-08T00:25:16.233Z,4.93
2019-01-08T00:25:53.275Z,5.17
2019-01-08T00:26:30.359Z,4.53
2019-01-08T00:27:07.376Z,4.67
2019-01-08T00:27:43.597Z,4.30
2019-01-08T00:28:20.196Z,4.63
2019-01-08T00:28:56.703Z,5.00
2019-01-08T00:29:33.107Z,5.23
2019-01-08T00:30:09.540Z,4.60
2019-01-08T00:30:46.669Z,4.17
2019-01-08T00:31:23.145Z,4.00
2019-01-08T00:31:59.651Z,4.90
2019-01-08T00:32:36.068Z,4.80
2019-01-08T00:33:12.494Z,4.30
2019-01-08T00:33:48.782Z,3.97
2019-01-08T00:34:25.203Z,3.50
2019-01-08T00:35:01.949Z,4.47
2019-01-08T00:35:38.755Z,4.63
2019-01-08T00:36:15.071Z,4.47
2019-01-08T00:36:51.539Z,4.33
2019-01-08T00:37:29.350Z,4.10
2019-01-08T00:38:06.642Z,4.77
2019-01-08T00:38:43.095Z,3.13
2019-01-08T00:39:20.088Z,4.13
2019-01-08T00:39:57.161Z,4.00
2019-01-08T00:40:35.633Z,3.77
2019-01-08T00:41:16.053Z,4.00
2019-01-08T00:41:52.424Z,4.37
2019-01-08T00:42:29.338Z,4.50
2019-01-08T00:43:05.759Z,4.10
2019-01-08T00:43:42.396Z,3.67
2019-01-08T00:44:19.224Z,4.47
2019-01-08T00:44:55.973Z,4.10
2019-01-08T00:45:32.873Z,3.67
2019-01-08T00:46:09.163Z,3.70
2019-01-08T00:46:46.040Z,5.10
2019-01-08T00:47:22.956Z,4.30
2019-01-08T00:47:59.303Z,4.27
2019-01-08T00:48:35.584Z,4.30
2019-01-08T00:49:12.237Z,4.30
2019-01-08T00:49:49.180Z,4.37
2019-01-08T00:50:26.055Z,3.83
2019-01-08T00:51:02.623Z,4.93
2019-01-08T00:51:39.782Z,4.53
2019-01-08T00:52:16.108Z,3.43
2019-01-08T00:52:53.161Z,4.97
2019-01-08T00:53:29.544Z,4.93
2019-01-08T00:54:05.805Z,4.50
2019-01-08T00:54:42.879Z,4.73
2019-01-08T00:55:19.973Z,4.90
2019-01-08T00:55:56.947Z,4.17
2019-01-08T00:56:33.255Z,5.00
2019-01-08T00:57:09.518Z,4.20
2019-01-08T00:57:45.880Z,4.43
2019-01-08T00:58:22.721Z,5.20
2019-01-08T00:58:59.700Z,5.00
2019-01-08T00:59:36.114Z,6.43
2019-01-08T01:00:13.394Z,4.80
2019-01-08T01:00:50.269Z,4.57
2019-01-08T01:01:26.856Z,4.13
2019-01-08T01:02:03.629Z,4.70
2019-01-08T01:02:39.953Z,4.33
2019-01-08T01:03:16.200Z,4.83
2019-01-08T01:03:52.530Z,5.40
2019-01-08T01:04:28.925Z,4.43
2019-01-08T01:05:05.571Z,4.17
2019-01-08T01:05:41.915Z,5.37
2019-01-08T01:06:18.448Z,5.17
2019-01-08T01:06:54.913Z,4.40
2019-01-08T01:07:31.964Z,4.30
2019-01-08T01:08:08.345Z,5.40
2019-01-08T01:08:44.786Z,5.60
2019-01-08T01:09:22.190Z,5.47
2019-01-08T01:09:58.509Z,4.43
2019-01-08T01:10:34.972Z,4.13
2019-01-08T01:11:12.030Z,4.47
2019-01-08T01:11:49.160Z,4.70
2019-01-08T01:12:25.717Z,4.67
2019-01-08T01:13:02.743Z,4.33
2019-01-08T01:13:39.797Z,5.00
2019-01-08T01:14:16.041Z,4.90
2019-01-08T01:14:52.772Z,4.27
2019-01-08T01:15:28.954Z,5.50
2019-01-08T01:16:05.921Z,6.50
2019-01-08T01:16:43.714Z,5.07
2019-01-08T01:17:20.107Z,5.33
2019-01-08T01:17:56.696Z,6.53
2019-01-08T01:18:33.524Z,5.33
2019-01-08T01:19:10.154Z,5.57
2019-01-08T01:19:46.465Z,6.10
2019-01-08T01:20:23.505Z,4.90
2019-01-08T01:21:00.411Z,5.43
2019-01-08T01:21:36.677Z,4.67
2019-01-08T01:22:13.303Z,5.77
2019-01-08T01:22:50.768Z,4.60
2019-01-08T01:23:28.013Z,5.20
2019-01-08T01:24:04.196Z,7.47
2019-01-08T01:24:40.870Z,5.30
2019-01-08T01:25:17.248Z,5.60
2019-01-08T01:25:53.990Z,4.80
2019-01-08T01:26:30.985Z,5.57
2019-01-08T01:27:07.593Z,5.50
2019-01-08T01:27:43.979Z,5.27
2019-01-08T01:28:20.921Z,5.83
2019-01-08T01:29:00.225Z,5.70
2019-01-08T01:29:35.731Z,6.27
2019-01-08T01:30:12.476Z,5.43
2019-01-08T01:30:48.785Z,5.77
2019-01-08T01:31:25.914Z,7.10
2019-01-08T01:32:02.798Z,6.03
2019-01-08T01:32:39.823Z,6.33
2019-01-08T01:33:16.220Z,5.60
2019-01-08T01:33:52.577Z,7.30
2019-01-08T01:34:29.010Z,6.43
2019-01-08T01:35:05.268Z,6.23
2019-01-08T01:35:42.359Z,6.10
2019-01-08T01:36:18.653Z,6.77
2019-01-08T01:36:55.618Z,5.03
2019-01-08T01:37:32.105Z,5.47
2019-01-08T01:38:08.832Z,5.53
2019-01-08T01:38:45.373Z,6.23
2019-01-08T01:39:22.542Z,5.80
2019-01-08T01:40:01.231Z,6.40
2019-01-08T01:40:38.482Z,5.60
2019-01-08T01:41:15.126Z,6.60
2019-01-08T01:41:51.641Z,6.80
2019-01-08T01:42:27.915Z,6.07
2019-01-08T01:43:04.782Z,7.37
2019-01-08T01:43:41.938Z,6.00
2019-01-08T01:44:18.636Z,5.40
2019-01-08T01:44:55.942Z,5.40
2019-01-08T01:45:32.319Z,6.40
2019-01-08T01:46:08.678Z,5.60
2019-01-08T01:46:45.355Z,5.97
2019-01-08T01:47:21.599Z,6.50
2019-01-08T01:47:58.070Z,6.90
2019-01-08T01:48:34.915Z,6.50
2019-01-08T01:49:11.138Z,5.90
2019-01-08T01:49:47.355Z,7.07
2019-01-08T01:50:24.383Z,5.97
2019-01-08T01:51:01.267Z,6.20
2019-01-08T01:51:37.722Z,6.07
2019-01-08T01:52:14.962Z,6.63
2019-01-08T01:52:52.085Z,6.50
2019-01-08T01:53:28.575Z,6.40
2019-01-08T01:54:05.325Z,7.40
2019-01-08T01:54:44.669Z,6.63
2019-01-08T01:55:21.162Z,8.03
2019-01-08T01:55:57.448Z,5.90
2019-01-08T01:56:34.271Z,5.27
2019-01-08T01:57:11.463Z,5.70
2019-01-08T01:57:47.844Z,6.50
2019-01-08T01:58:24.674Z,5.90
2019-01-08T01:59:08.154Z,6.00
2019-01-08T01:59:40.343Z,5.23
2019-01-08T02:00:16.754Z,6.20
2019-01-08T02:00:53.179Z,7.73
2019-01-08T02:01:29.289Z,6.53
2019-01-08T02:02:06.913Z,6.87
2019-01-08T02:02:47.264Z,6.90
2019-01-08T02:03:24.317Z,5.90
2019-01-08T02:04:01.203Z,6.60
2019-01-08T02:04:38.079Z,6.23
2019-01-08T02:05:14.456Z,6.37
2019-01-08T02:05:51.665Z,7.43
2019-01-08T02:06:28.036Z,6.07
2019-01-08T02:07:05.178Z,5.97
2019-01-08T02:07:41.492Z,6.43
2019-01-08T02:08:18.362Z,6.63
2019-01-08T02:08:54.583Z,5.83
2019-01-08T02:09:31.743Z,5.90
2019-01-08T02:10:08.253Z,6.37
2019-01-08T02:10:45.172Z,5.30
2019-01-08T02:11:21.508Z,5.73
2019-01-08T02:11:59.491Z,5.60
2019-01-08T02:12:35.827Z,6.23
2019-01-08T02:13:12.658Z,7.33
2019-01-08T02:13:48.931Z,6.00
2019-01-08T02:14:25.721Z,5.57
2019-01-08T02:15:02.155Z,6.40
2019-01-08T02:15:39.261Z,6.13
2019-01-08T02:16:16.149Z,6.30
2019-01-08T02:16:52.866Z,5.17
2019-01-08T02:17:29.742Z,5.37
2019-01-08T02:18:06.570Z,5.27
2019-01-08T02:18:44.917Z,5.20
2019-01-08T02:19:21.220Z,5.00
2019-01-08T02:19:57.496Z,5.50
2019-01-08T02:20:33.875Z,4.47
2019-01-08T02:21:11.022Z,4.70
2019-01-08T02:21:47.225Z,5.80
2019-01-08T02:22:24.097Z,4.40
2019-01-08T02:23:01.006Z,3.87
2019-01-08T02:23:37.996Z,3.93
2019-01-08T02:24:14.388Z,4.23
2019-01-08T02:24:51.673Z,3.47
2019-01-08T02:25:28.574Z,3.93
2019-01-08T02:26:04.758Z,4.07
2019-01-08T02:26:42.750Z,3.40
2019-01-08T02:27:19.842Z,3.00
2019-01-08T02:27:57.085Z,3.30
2019-01-08T02:28:33.228Z,3.87
2019-01-08T02:29:16.497Z,3.40
2019-01-08T02:29:48.830Z,3.50
2019-01-08T02:30:26.102Z,3.67
2019-01-08T02:31:02.831Z,4.10
2019-01-08T02:31:40.333Z,3.37
2019-01-08T02:32:17.590Z,3.80
2019-01-08T02:32:54.047Z,3.70
2019-01-08T02:33:30.401Z,4.13
2019-01-08T02:34:06.759Z,3.63
2019-01-08T02:34:43.780Z,3.40
2019-01-08T02:35:20.906Z,3.87
2019-01-08T02:36:00.204Z,3.33
2019-01-08T02:36:38.752Z,3.87
2019-01-08T02:37:14.923Z,3.43
2019-01-08T02:37:51.974Z,3.60
2019-01-08T02:38:28.388Z,3.27
2019-01-08T02:39:07.497Z,3.10
2019-01-08T02:39:43.911Z,3.60
2019-01-08T02:40:20.265Z,3.47
2019-01-08T02:40:56.766Z,3.90
2019-01-08T02:41:33.754Z,3.80
2019-01-08T02:42:18.024Z,4.33
2019-01-08T02:42:54.358Z,3.10
2019-01-08T02:43:31.462Z,4.20
2019-01-08T02:44:08.093Z,3.70
2019-01-08T02:44:45.042Z,3.70
2019-01-08T02:45:23.195Z,3.07
2019-01-08T02:45:59.493Z,3.90
2019-01-08T02:46:35.902Z,3.23
2019-01-08T02:47:13.036Z,3.67
2019-01-08T02:47:50.381Z,3.60
2019-01-08T02:48:26.685Z,3.30
2019-01-08T02:49:03.509Z,3.60
2019-01-08T02:49:40.033Z,4.80
2019-01-08T02:50:17.011Z,3.43
2019-01-08T02:50:53.874Z,4.10
2019-01-08T02:51:31.249Z,5.10
2019-01-08T02:52:07.698Z,3.47
2019-01-08T02:52:44.259Z,4.03
2019-01-08T02:53:20.643Z,3.60
2019-01-08T02:53:57.074Z,3.57
2019-01-08T02:54:34.403Z,3.07
2019-01-08T02:55:11.802Z,3.50
2019-01-08T02:55:48.170Z,3.47
2019-01-08T02:56:24.362Z,3.90
2019-01-08T02:57:01.485Z,4.63
2019-01-08T02:57:38.237Z,3.90
2019-01-08T02:58:14.607Z,3.43
2019-01-08T02:58:51.581Z,3.23
2019-01-08T02:59:27.948Z,4.30
2019-01-08T03:00:05.046Z,5.27
2019-01-08T03:00:42.197Z,4.70
2019-01-08T03:01:18.883Z,3.80
2019-01-08T03:01:56.405Z,4.27
2019-01-08T03:02:29.561Z,3.70
2019-01-08T03:03:06.085Z,3.80
2019-01-08T03:03:43.290Z,4.03
2019-01-08T03:04:20.714Z,4.00
2019-01-08T03:04:57.259Z,4.70
2019-01-08T03:05:34.211Z,5.33
2019-01-08T03:06:11.642Z,4.90
2019-01-08T03:06:50.286Z,4.73
2019-01-08T03:07:27.441Z,4.83
2019-01-08T03:08:03.667Z,5.43
2019-01-08T03:08:40.596Z,5.60
2019-01-08T03:09:16.936Z,5.53
2019-01-08T03:09:54.046Z,5.30
2019-01-08T03:10:32.031Z,4.50
2019-01-08T03:11:09.566Z,4.90
2019-01-08T03:11:45.927Z,4.43
2019-01-08T03:12:22.810Z,3.53
2019-01-08T03:12:59.108Z,5.20
2019-01-08T03:13:35.933Z,4.73
2019-01-08T03:14:13.001Z,4.20
2019-01-08T03:14:49.958Z,4.90
2019-01-08T03:15:26.260Z,5.30
2019-01-08T03:16:03.822Z,4.73
2019-01-08T03:16:40.268Z,4.57
2019-01-08T03:17:16.721Z,4.40
2019-01-08T03:17:54.124Z,5.07
2019-01-08T03:18:31.427Z,4.77
2019-01-08T03:19:07.838Z,4.63
2019-01-08T03:19:44.905Z,4.90
2019-01-08T03:20:21.901Z,4.50
2019-01-08T03:21:04.607Z,3.83
2019-01-08T03:21:41.566Z,4.53
2019-01-08T03:22:18.639Z,4.17
2019-01-08T03:22:55.721Z,4.50
2019-01-08T03:23:32.045Z,4.70
2019-01-08T03:24:08.381Z,5.10
2019-01-08T03:24:45.414Z,4.33
2019-01-08T03:25:22.595Z,5.00
2019-01-08T03:25:58.810Z,5.60
2019-01-08T03:26:35.252Z,4.80
2019-01-08T03:27:12.274Z,4.13
2019-01-08T03:27:49.708Z,4.63
2019-01-08T03:28:29.708Z,4.93
2019-01-08T03:29:06.374Z,5.23
2019-01-08T03:29:44.449Z,4.30
2019-01-08T03:30:26.652Z,4.40
2019-01-08T03:31:04.007Z,4.57
2019-01-08T03:31:40.714Z,4.40
2019-01-08T03:32:17.878Z,3.90
2019-01-08T03:32:55.247Z,5.30
2019-01-08T03:33:35.708Z,5.40
2019-01-08T03:34:12.328Z,4.40
2019-01-08T03:34:46.050Z,4.80
2019-01-08T03:35:22.979Z,5.23
2019-01-08T03:35:59.333Z,5.60
2019-01-08T03:36:36.135Z,5.33
2019-01-08T03:37:13.110Z,4.50
2019-01-08T03:37:50.425Z,5.00
2019-01-08T03:38:26.923Z,4.80
2019-01-08T03:39:06.155Z,4.57
2019-01-08T03:39:43.116Z,4.57
2019-01-08T03:40:19.847Z,4.00
2019-01-08T03:40:57.192Z,5.27
2019-01-08T03:41:34.381Z,5.57
2019-01-08T03:42:10.801Z,5.00
2019-01-08T03:42:47.561Z,4.00
2019-01-08T03:43:24.651Z,4.57
2019-01-08T03:44:01.873Z,4.37
2019-01-08T03:44:38.339Z,4.80
2019-01-08T03:45:15.221Z,4.70
2019-01-08T03:45:51.555Z,5.40
2019-01-08T03:46:27.908Z,4.97
2019-01-08T03:47:05.099Z,4.70
2019-01-08T03:47:41.863Z,5.07
2019-01-08T03:48:18.183Z,4.80
2019-01-08T03:48:55.557Z,4.53
2019-01-08T03:49:32.301Z,5.00
2019-01-08T03:50:09.291Z,5.13
2019-01-08T03:50:45.650Z,4.50
2019-01-08T03:51:22.120Z,4.73
2019-01-08T03:51:59.628Z,4.30
2019-01-08T03:52:37.230Z,5.17
2019-01-08T03:53:13.981Z,5.00
2019-01-08T03:53:50.294Z,5.27
2019-01-08T03:54:27.533Z,5.47
2019-01-08T03:55:05.283Z,5.20
2019-01-08T03:55:41.734Z,4.47
2019-01-08T03:56:18.104Z,4.20
2019-01-08T03:56:56.130Z,4.10
2019-01-08T03:58:20.708Z,4.53
2019-01-08T03:58:58.331Z,3.60
2019-01-08T03:59:41.887Z,4.40
2019-01-08T04:00:17.173Z,4.73
2019-01-08T04:00:53.695Z,4.23
2019-01-08T04:01:31.201Z,4.47
2019-01-08T04:02:07.928Z,5.27
2019-01-08T04:02:44.913Z,3.70
2019-01-08T04:03:21.225Z,5.30
2019-01-08T04:03:58.131Z,4.37
2019-01-08T04:04:35.161Z,3.90
2019-01-08T04:05:13.801Z,4.80
2019-01-08T04:05:52.949Z,4.77
2019-01-08T04:06:29.433Z,4.97
2019-01-08T04:07:06.463Z,4.80
2019-01-08T04:07:47.705Z,4.87
2019-01-08T04:08:24.609Z,4.90
2019-01-08T04:09:00.851Z,5.00
2019-01-08T04:09:37.755Z,4.63
2019-01-08T04:10:14.901Z,5.00
2019-01-08T04:10:51.250Z,4.40
2019-01-08T04:11:27.824Z,5.40
2019-01-08T04:12:04.773Z,5.13
2019-01-08T04:12:44.774Z,4.93
2019-01-08T04:13:21.252Z,5.20
2019-01-08T04:13:57.994Z,4.90
2019-01-08T04:14:35.353Z,4.90
2019-01-08T04:15:12.252Z,5.53
2019-01-08T04:15:49.513Z,5.47
2019-01-08T04:16:26.288Z,5.67
2019-01-08T04:17:02.568Z,5.33
2019-01-08T04:17:39.443Z,4.97
2019-01-08T04:18:16.666Z,5.33
2019-01-08T04:18:53.145Z,4.67
2019-01-08T04:19:30.120Z,5.97
2019-01-08T04:20:06.970Z,6.00
2019-01-08T04:20:43.844Z,4.40
2019-01-08T04:21:20.759Z,5.40
2019-01-08T04:21:59.311Z,6.00
2019-01-08T04:22:36.418Z,4.67
2019-01-08T04:23:12.637Z,5.83
2019-01-08T04:23:48.938Z,5.30
2019-01-08T04:24:26.345Z,5.03
2019-01-08T04:25:03.349Z,4.90
2019-01-08T04:25:41.131Z,5.20
2019-01-08T04:26:18.006Z,4.40
2019-01-08T04:26:54.263Z,3.80
2019-01-08T04:27:31.021Z,5.00
2019-01-08T04:28:07.352Z,5.13
2019-01-08T04:28:43.882Z,5.47
2019-01-08T04:29:21.000Z,5.33
2019-01-08T04:29:57.995Z,4.87
2019-01-08T04:30:35.097Z,5.50
2019-01-08T04:31:11.722Z,5.30
2019-01-08T04:31:48.802Z,5.03
2019-01-08T04:32:25.233Z,5.43
2019-01-08T04:33:01.767Z,4.97
2019-01-08T04:33:39.435Z,5.53
2019-01-08T04:34:15.796Z,4.03
2019-01-08T04:34:52.118Z,5.17
2019-01-08T04:35:28.880Z,4.67
2019-01-08T04:36:08.547Z,4.30
2019-01-08T04:36:44.821Z,5.10
2019-01-08T04:37:21.358Z,4.87
2019-01-08T04:37:57.734Z,4.23
2019-01-08T04:38:34.175Z,4.63
2019-01-08T04:39:10.705Z,3.80
2019-01-08T04:39:47.476Z,4.70
2019-01-08T04:40:24.180Z,5.23
2019-01-08T04:41:01.333Z,4.57
2019-01-08T04:41:39.573Z,4.60
2019-01-08T04:42:16.369Z,3.63
2019-01-08T04:42:53.031Z,3.83
2019-01-08T04:43:29.570Z,3.97
2019-01-08T04:44:07.430Z,4.30
2019-01-08T04:44:44.891Z,3.60
2019-01-08T04:45:22.034Z,4.37
2019-01-08T04:46:00.621Z,3.20
2019-01-08T04:46:39.646Z,3.57
2019-01-08T04:47:18.243Z,3.80
2019-01-08T04:47:55.479Z,3.57
2019-01-08T04:48:32.215Z,3.70
2019-01-08T04:49:10.147Z,3.43
2019-01-08T04:49:47.845Z,3.77
2019-01-08T04:50:24.119Z,3.60
2019-01-08T04:51:00.515Z,3.90
2019-01-08T04:51:38.022Z,3.67
2019-01-08T04:52:15.413Z,4.03
2019-01-08T04:52:52.705Z,4.10
2019-01-08T04:53:29.491Z,4.57
2019-01-08T04:54:05.974Z,3.83
2019-01-08T04:54:43.247Z,3.80
2019-01-08T04:55:20.372Z,3.90
2019-01-08T04:55:56.699Z,4.27
2019-01-08T04:56:33.282Z,4.23
2019-01-08T04:57:09.749Z,4.50
2019-01-08T04:57:46.692Z,3.43
2019-01-08T04:58:23.705Z,3.93
2019-01-08T04:59:00.614Z,4.53
2019-01-08T04:59:37.924Z,3.97
2019-01-08T05:00:14.997Z,4.27
2019-01-08T05:00:51.988Z,3.60
2019-01-08T05:01:28.447Z,4.80
2019-01-08T05:02:04.876Z,3.60
2019-01-08T05:02:42.368Z,4.20
2019-01-08T05:03:19.969Z,4.43
2019-01-08T05:03:57.051Z,4.00
2019-01-08T05:04:33.725Z,3.93
2019-01-08T05:05:11.224Z,4.17
2019-01-08T05:05:47.684Z,4.97
2019-01-08T05:06:24.519Z,4.40
2019-01-08T05:07:01.803Z,4.20
2019-01-08T05:07:38.133Z,4.57
2019-01-08T05:08:14.697Z,5.30
2019-01-08T05:08:52.111Z,4.37
2019-01-08T05:09:28.684Z,4.23
2019-01-08T05:10:06.332Z,4.20
2019-01-08T05:10:45.603Z,4.90
2019-01-08T05:11:22.955Z,4.90
2019-01-08T05:11:59.880Z,4.73
2019-01-08T05:12:36.279Z,4.83
2019-01-08T05:13:13.009Z,5.10
2019-01-08T05:13:49.367Z,5.63
2019-01-08T05:14:26.249Z,5.63
2019-01-08T05:15:03.267Z,4.80
2019-01-08T05:15:39.779Z,5.40
2019-01-08T05:16:16.211Z,5.70
2019-01-08T05:16:53.228Z,6.30
2019-01-08T05:17:29.900Z,6.07
2019-01-08T05:18:06.309Z,5.37
2019-01-08T05:18:43.867Z,5.60
2019-01-08T05:19:22.501Z,5.90
2019-01-08T05:20:01.770Z,6.50
2019-01-08T05:20:39.716Z,5.93
2019-01-08T05:21:17.218Z,5.70
2019-01-08T05:21:54.279Z,6.30
2019-01-08T05:22:33.724Z,5.20
2019-01-08T05:23:13.737Z,5.83
2019-01-08T05:23:50.127Z,6.43
2019-01-08T05:24:27.494Z,5.43
2019-01-08T05:25:04.113Z,5.83
2019-01-08T05:25:42.369Z,6.27
2019-01-08T05:26:18.763Z,6.10
2019-01-08T05:26:55.142Z,6.43
2019-01-08T05:27:32.330Z,6.40
2019-01-08T05:28:08.721Z,7.57
2019-01-08T05:28:46.358Z,6.97
2019-01-08T05:29:23.731Z,7.07
2019-01-08T05:30:07.811Z,6.53
2019-01-08T05:30:38.886Z,6.10
2019-01-08T05:31:17.420Z,6.73
2019-01-08T05:31:53.712Z,8.00
2019-01-08T05:32:31.642Z,7.40
2019-01-08T05:33:08.197Z,7.10
2019-01-08T05:33:44.536Z,6.57
2019-01-08T05:34:21.016Z,7.23
2019-01-08T05:34:57.299Z,6.60
2019-01-08T05:35:34.136Z,7.50
2019-01-08T05:36:11.534Z,6.57
2019-01-08T05:36:48.185Z,6.90
2019-01-08T05:37:25.433Z,7.70
2019-01-08T05:38:01.686Z,7.27
2019-01-08T05:38:38.391Z,8.13
2019-01-08T05:39:15.578Z,7.60
2019-01-08T05:39:55.052Z,7.97
2019-01-08T05:40:31.667Z,7.20
2019-01-08T05:41:08.039Z,7.00
2019-01-08T05:41:49.395Z,6.27
2019-01-08T05:42:25.821Z,6.23
2019-01-08T05:43:02.262Z,7.83
2019-01-08T05:43:38.663Z,5.87
2019-01-08T05:44:18.102Z,7.43
2019-01-08T05:44:54.566Z,6.30
2019-01-08T05:45:33.343Z,6.50
2019-01-08T05:46:09.811Z,7.00
2019-01-08T05:46:47.068Z,5.73
2019-01-08T05:47:24.284Z,6.30
2019-01-08T05:48:00.603Z,4.77
2019-01-08T05:48:37.632Z,5.33
2019-01-08T05:49:15.242Z,5.33
2019-01-08T05:49:51.588Z,5.47
2019-01-08T05:50:28.432Z,4.80
2019-01-08T05:51:05.762Z,4.33
2019-01-08T05:51:42.199Z,4.80
2019-01-08T05:52:19.546Z,5.37
2019-01-08T05:52:56.582Z,5.00
2019-01-08T05:53:34.521Z,5.00
2019-01-08T05:54:11.410Z,5.80
2019-01-08T05:54:48.021Z,5.27
2019-01-08T05:55:25.417Z,5.17
2019-01-08T05:56:02.802Z,6.33
2019-01-08T05:56:40.718Z,4.77
2019-01-08T05:57:17.148Z,4.97
2019-01-08T05:57:55.699Z,4.73
2019-01-08T05:58:32.980Z,5.47
2019-01-08T05:59:09.522Z,5.23
2019-01-08T05:59:45.843Z,4.10
2019-01-08T06:00:23.961Z,3.77
2019-01-08T06:01:01.618Z,4.50
2019-01-08T06:01:38.077Z,3.90
2019-01-08T06:02:15.006Z,3.80
2019-01-08T06:02:51.780Z,4.23
2019-01-08T06:03:28.658Z,4.47
2019-01-08T06:04:07.908Z,3.97
2019-01-08T06:04:45.326Z,4.30
2019-01-08T06:05:21.628Z,4.87
2019-01-08T06:05:57.990Z,4.63
2019-01-08T06:06:35.148Z,3.70
2019-01-08T06:07:12.335Z,4.80
2019-01-08T06:07:50.122Z,4.63
2019-01-08T06:08:26.968Z,3.83
2019-01-08T06:09:04.977Z,4.70
2019-01-08T06:09:41.537Z,4.40
2019-01-08T06:10:18.168Z,4.30
2019-01-08T06:10:54.947Z,4.50
2019-01-08T06:11:32.019Z,4.10
2019-01-08T06:12:08.676Z,5.50
2019-01-08T06:12:45.487Z,4.80
2019-01-08T06:13:21.695Z,4.43
2019-01-08T06:13:58.665Z,4.53
2019-01-08T06:14:36.846Z,5.00
2019-01-08T06:15:16.298Z,3.60
2019-01-08T06:15:53.381Z,4.33
2019-01-08T06:16:29.704Z,4.60
2019-01-08T06:17:06.702Z,4.47
2019-01-08T06:17:43.642Z,4.73
2019-01-08T06:18:21.070Z,5.17
2019-01-08T06:19:00.879Z,5.50
2019-01-08T06:19:37.692Z,5.37
2019-01-08T06:20:14.126Z,4.00
2019-01-08T06:20:50.760Z,4.27
2019-01-08T06:21:27.663Z,4.10
2019-01-08T06:22:03.999Z,4.13
2019-01-08T06:22:40.412Z,4.10
2019-01-08T06:23:17.377Z,4.10
2019-01-08T06:23:56.094Z,5.13
2019-01-08T06:24:32.416Z,5.30
2019-01-08T06:25:09.798Z,4.90
2019-01-08T06:25:47.230Z,4.50
2019-01-08T06:26:23.638Z,5.30
2019-01-08T06:26:59.991Z,4.67
2019-01-08T06:27:37.849Z,4.63
2019-01-08T06:28:15.046Z,4.87
2019-01-08T06:28:52.218Z,4.50
2019-01-08T06:29:29.395Z,4.57
2019-01-08T06:30:06.332Z,4.17
2019-01-08T06:30:45.882Z,3.90
2019-01-08T06:31:24.162Z,4.60
2019-01-08T06:32:00.570Z,4.40
2019-01-08T06:32:37.345Z,5.00
2019-01-08T06:33:13.561Z,5.30
2019-01-08T06:33:50.551Z,4.33
2019-01-08T06:34:27.137Z,4.93
2019-01-08T06:35:08.299Z,5.30
2019-01-08T06:35:45.682Z,4.60
2019-01-08T06:36:22.121Z,4.30
2019-01-08T06:36:59.571Z,5.00
2019-01-08T06:37:36.055Z,5.83
2019-01-08T06:38:12.475Z,5.30
2019-01-08T06:38:49.070Z,4.47
2019-01-08T06:39:25.560Z,5.20
2019-01-08T06:40:02.790Z,5.80
2019-01-08T06:40:39.595Z,5.00
2019-01-08T06:41:16.585Z,4.53
2019-01-08T06:41:53.402Z,5.33
2019-01-08T06:42:31.952Z,4.90
2019-01-08T06:43:09.438Z,4.60
2019-01-08T06:43:47.427Z,4.67
2019-01-08T06:44:23.664Z,5.40
2019-01-08T06:45:00.184Z,5.00
2019-01-08T06:45:36.543Z,6.03
2019-01-08T06:46:12.925Z,4.83
2019-01-08T06:46:49.783Z,5.90
2019-01-08T06:47:26.251Z,5.70
2019-01-08T06:48:03.039Z,5.53
2019-01-08T06:48:40.432Z,5.27
2019-01-08T06:49:18.522Z,6.10
2019-01-08T06:49:55.472Z,5.80
2019-01-08T06:50:32.368Z,5.40
2019-01-08T06:51:09.659Z,5.50
2019-01-08T06:51:46.153Z,5.73
2019-01-08T06:52:22.441Z,6.77
2019-01-08T06:53:00.512Z,6.13
2019-01-08T06:53:36.876Z,6.73
2019-01-08T06:54:13.919Z,5.33
2019-01-08T06:54:50.717Z,5.50
2019-01-08T06:55:27.879Z,6.20
2019-01-08T06:56:04.134Z,5.97
2019-01-08T06:56:42.099Z,5.43
2019-01-08T06:57:31.165Z,5.23
2019-01-08T06:58:07.609Z,5.43
2019-01-08T06:58:44.056Z,5.97
2019-01-08T06:59:21.544Z,5.70
2019-01-08T06:59:57.861Z,5.77
2019-01-08T07:00:34.258Z,5.90
2019-01-08T07:01:10.723Z,6.00
2019-01-08T07:01:47.355Z,5.50
2019-01-08T07:02:23.597Z,5.80
2019-01-08T07:03:01.663Z,5.20
2019-01-08T07:03:37.945Z,5.60
2019-01-08T07:04:14.386Z,6.50
2019-01-08T07:04:51.787Z,5.27
2019-01-08T07:05:29.940Z,6.20
2019-01-08T07:06:06.219Z,5.50
2019-01-08T07:06:42.971Z,6.23
2019-01-08T07:07:20.087Z,6.00
2019-01-08T07:07:57.431Z,5.50
2019-01-08T07:08:33.901Z,5.00
2019-01-08T07:09:11.220Z,5.67
2019-01-08T07:09:49.484Z,5.63
2019-01-08T07:10:25.832Z,5.33
2019-01-08T07:11:02.904Z,6.00
2019-01-08T07:11:40.569Z,4.70
2019-01-08T07:12:16.905Z,5.10
2019-01-08T07:12:54.103Z,6.17
2019-01-08T07:13:30.702Z,5.50
2019-01-08T07:14:07.018Z,5.87
2019-01-08T07:14:43.318Z,5.87
2019-01-08T07:15:19.744Z,5.10
2019-01-08T07:15:56.084Z,5.00
2019-01-08T07:16:34.005Z,4.90
2019-01-08T07:17:10.351Z,5.07
2019-01-08T07:17:46.822Z,6.80
2019-01-08T07:18:23.180Z,5.83
2019-01-08T07:18:59.416Z,5.43
2019-01-08T07:19:35.806Z,6.50
2019-01-08T07:20:12.314Z,5.80
2019-01-08T07:20:48.772Z,5.33
2019-01-08T07:21:25.101Z,6.40
2019-01-08T07:22:02.116Z,5.77
2019-01-08T07:22:39.357Z,6.67
2019-01-08T07:23:15.701Z,6.33
2019-01-08T07:23:51.981Z,6.73
2019-01-08T07:24:28.272Z,4.97
2019-01-08T07:25:04.799Z,5.97
2019-01-08T07:25:42.255Z,6.30
2019-01-08T07:26:19.391Z,5.63
2019-01-08T07:26:56.924Z,6.27
2019-01-08T07:27:33.911Z,5.63
2019-01-08T07:28:11.064Z,6.27
2019-01-08T07:28:47.291Z,7.10
2019-01-08T07:29:23.457Z,6.07
2019-01-08T07:29:59.959Z,5.97
2019-01-08T07:30:41.441Z,5.80
2019-01-08T07:31:15.911Z,6.60
2019-01-08T07:31:52.980Z,5.50
2019-01-08T07:32:29.676Z,6.60
2019-01-08T07:33:06.164Z,6.67
2019-01-08T07:33:42.619Z,5.73
2019-01-08T07:34:18.957Z,6.00
2019-01-08T07:34:55.713Z,5.90
2019-01-08T07:35:32.357Z,6.17
2019-01-08T07:36:09.052Z,6.60
2019-01-08T07:36:48.532Z,5.67
2019-01-08T07:37:28.346Z,6.13
2019-01-08T07:38:05.491Z,5.90
2019-01-08T07:38:42.227Z,6.27
2019-01-08T07:39:18.931Z,5.13
2019-01-08T07:39:55.507Z,5.90
2019-01-08T07:40:32.451Z,6.37
2019-01-08T07:41:08.802Z,6.60
2019-01-08T07:41:45.457Z,6.30
2019-01-08T07:42:22.509Z,7.00
2019-01-08T07:42:58.817Z,6.60
2019-01-08T07:43:35.783Z,6.00
2019-01-08T07:44:11.996Z,6.60
2019-01-08T07:44:48.346Z,6.27
2019-01-08T07:45:25.468Z,6.90
2019-01-08T07:46:01.905Z,6.20
2019-01-08T07:46:40.270Z,6.73
2019-01-08T07:47:17.525Z,5.97
2019-01-08T07:47:54.274Z,6.83
2019-01-08T07:48:31.178Z,6.13
2019-01-08T07:49:07.956Z,5.63
2019-01-08T07:49:49.644Z,6.57
2019-01-08T07:50:26.715Z,5.93
2019-01-08T07:51:02.988Z,7.00
2019-01-08T07:51:39.973Z,5.97
2019-01-08T07:52:16.224Z,7.03
2019-01-08T07:52:53.307Z,6.80
2019-01-08T07:53:29.948Z,6.87
2019-01-08T07:54:06.394Z,5.23
2019-01-08T07:54:43.255Z,6.10
2019-01-08T07:55:20.095Z,6.50
2019-01-08T07:55:56.868Z,7.37
2019-01-08T07:56:33.278Z,6.40
2019-01-08T07:57:10.259Z,6.57
2019-01-08T07:57:46.538Z,7.03
2019-01-08T07:58:22.973Z,7.07
2019-01-08T07:58:59.917Z,7.10
2019-01-08T07:59:36.980Z,6.57
2019-01-08T08:00:13.347Z,7.30
2019-01-08T08:00:50.037Z,7.33
2019-01-08T08:01:27.042Z,6.90
2019-01-08T08:02:03.996Z,6.03
2019-01-08T08:02:41.254Z,6.20
2019-01-08T08:03:17.916Z,6.57
2019-01-08T08:03:54.268Z,6.90
2019-01-08T08:04:31.190Z,6.50
2019-01-08T08:05:08.026Z,7.23
2019-01-08T08:05:44.760Z,6.70
2019-01-08T08:06:21.734Z,6.30
2019-01-08T08:06:58.159Z,7.17
2019-01-08T08:07:34.535Z,6.80
2019-01-08T08:08:10.834Z,6.67
2019-01-08T08:08:47.668Z,7.00
2019-01-08T08:09:24.302Z,7.17
2019-01-08T08:10:01.122Z,6.60
2019-01-08T08:10:37.958Z,6.37
2019-01-08T08:11:14.639Z,7.53
2019-01-08T08:11:51.503Z,7.80
2019-01-08T08:12:28.151Z,7.27
2019-01-08T08:13:06.957Z,5.90